sensor_id;sensor_type;location;lat;lon;timestamp;P1;durP1;ratioP1;P2;durP2;ratioP2
42840;SDS011;28491;46.898;7.660;2023-02-15T00:01:44;12.70;;;8.27;;
42840;SDS011;28491;46.898;7.660;2023-02-15T00:04:11;11.52;;;7.05;;
42840;SDS011;28491;46.898;7.660;2023-02-15T00:06:38;11.02;;;6.78;;
42840;SDS011;28491;46.898;7.660;2023-02-15T00:09:04;11.57;;;7.47;;
42840;SDS011;28491;46.898;7.660;2023-02-15T00:11:29;11.40;;;7.53;;
42840;SDS011;28491;46.898;7.660;2023-02-15T00:14:05;11.00;;;6.53;;
42840;SDS011;28491;46.898;7.660;2023-02-15T00:16:39;18.08;;;7.28;;
42840;SDS011;28491;46.898;7.660;2023-02-15T00:19:06;14.05;;;8.18;;
42840;SDS011;28491;46.898;7.660;2023-02-15T00:21:33;8.75;;;6.32;;
42840;SDS011;28491;46.898;7.660;2023-02-15T00:24:00;13.55;;;8.10;;
42840;SDS011;28491;46.898;7.660;2023-02-15T00:26:27;9.77;;;7.57;;
42840;SDS011;28491;46.898;7.660;2023-02-15T00:28:53;15.63;;;7.32;;
42840;SDS011;28491;46.898;7.660;2023-02-15T00:31:20;13.77;;;8.48;;
42840;SDS011;28491;46.898;7.660;2023-02-15T00:33:46;13.30;;;7.13;;
42840;SDS011;28491;46.898;7.660;2023-02-15T00:36:12;11.10;;;7.05;;
42840;SDS011;28491;46.898;7.660;2023-02-15T00:38:38;10.43;;;6.80;;
42840;SDS011;28491;46.898;7.660;2023-02-15T00:41:05;13.68;;;7.95;;
42840;SDS011;28491;46.898;7.660;2023-02-15T00:43:32;11.45;;;7.18;;
42840;SDS011;28491;46.898;7.660;2023-02-15T00:45:58;10.10;;;6.82;;
42840;SDS011;28491;46.898;7.660;2023-02-15T00:48:24;15.52;;;9.02;;
42840;SDS011;28491;46.898;7.660;2023-02-15T00:50:52;14.10;;;7.32;;
42840;SDS011;28491;46.898;7.660;2023-02-15T00:53:20;14.18;;;8.13;;
42840;SDS011;28491;46.898;7.660;2023-02-15T00:55:46;11.70;;;7.75;;
42840;SDS011;28491;46.898;7.660;2023-02-15T00:58:12;13.05;;;7.50;;
42840;SDS011;28491;46.898;7.660;2023-02-15T01:00:39;14.07;;;8.38;;
42840;SDS011;28491;46.898;7.660;2023-02-15T01:03:05;13.52;;;7.82;;
42840;SDS011;28491;46.898;7.660;2023-02-15T01:05:31;13.73;;;8.68;;
42840;SDS011;28491;46.898;7.660;2023-02-15T01:07:57;11.38;;;7.22;;
42840;SDS011;28491;46.898;7.660;2023-02-15T01:10:24;14.73;;;9.60;;
42840;SDS011;28491;46.898;7.660;2023-02-15T01:12:51;11.82;;;8.35;;
42840;SDS011;28491;46.898;7.660;2023-02-15T01:15:18;14.38;;;9.10;;
42840;SDS011;28491;46.898;7.660;2023-02-15T01:17:43;15.55;;;7.32;;
42840;SDS011;28491;46.898;7.660;2023-02-15T01:20:14;15.43;;;7.97;;
42840;SDS011;28491;46.898;7.660;2023-02-15T01:22:40;10.35;;;7.85;;
42840;SDS011;28491;46.898;7.660;2023-02-15T01:25:05;13.18;;;7.65;;
42840;SDS011;28491;46.898;7.660;2023-02-15T01:27:31;11.48;;;6.70;;
42840;SDS011;28491;46.898;7.660;2023-02-15T01:30:00;13.43;;;7.78;;
42840;SDS011;28491;46.898;7.660;2023-02-15T01:32:26;12.35;;;8.45;;
42840;SDS011;28491;46.898;7.660;2023-02-15T01:34:51;13.25;;;8.15;;
42840;SDS011;28491;46.898;7.660;2023-02-15T01:37:17;13.32;;;6.60;;
42840;SDS011;28491;46.898;7.660;2023-02-15T01:39:43;10.63;;;6.95;;
42840;SDS011;28491;46.898;7.660;2023-02-15T01:42:11;13.63;;;7.15;;
42840;SDS011;28491;46.898;7.660;2023-02-15T01:44:51;13.30;;;8.00;;
42840;SDS011;28491;46.898;7.660;2023-02-15T01:47:35;10.18;;;6.43;;
42840;SDS011;28491;46.898;7.660;2023-02-15T01:52:34;13.27;;;7.55;;
42840;SDS011;28491;46.898;7.660;2023-02-15T01:55:02;12.73;;;7.50;;
42840;SDS011;28491;46.898;7.660;2023-02-15T01:57:29;11.63;;;7.30;;
42840;SDS011;28491;46.898;7.660;2023-02-15T01:59:55;10.50;;;6.65;;
42840;SDS011;28491;46.898;7.660;2023-02-15T02:02:23;13.38;;;7.80;;
42840;SDS011;28491;46.898;7.660;2023-02-15T02:04:50;13.10;;;7.72;;
42840;SDS011;28491;46.898;7.660;2023-02-15T02:07:22;16.00;;;8.30;;
42840;SDS011;28491;46.898;7.660;2023-02-15T02:09:51;15.05;;;8.65;;
42840;SDS011;28491;46.898;7.660;2023-02-15T02:12:17;17.13;;;10.57;;
42840;SDS011;28491;46.898;7.660;2023-02-15T02:14:43;15.68;;;8.55;;
42840;SDS011;28491;46.898;7.660;2023-02-15T02:20:32;15.00;;;8.68;;
42840;SDS011;28491;46.898;7.660;2023-02-15T02:23:16;16.63;;;8.77;;
42840;SDS011;28491;46.898;7.660;2023-02-15T02:25:58;15.23;;;9.02;;
42840;SDS011;28491;46.898;7.660;2023-02-15T02:34:16;15.80;;;9.52;;
42840;SDS011;28491;46.898;7.660;2023-02-15T02:42:24;15.52;;;8.77;;
42840;SDS011;28491;46.898;7.660;2023-02-15T02:45:16;14.65;;;10.43;;
42840;SDS011;28491;46.898;7.660;2023-02-15T02:47:55;15.13;;;9.05;;
42840;SDS011;28491;46.898;7.660;2023-02-15T02:50:29;14.95;;;9.55;;
42840;SDS011;28491;46.898;7.660;2023-02-15T02:52:56;16.55;;;9.52;;
42840;SDS011;28491;46.898;7.660;2023-02-15T02:55:34;14.90;;;8.25;;
42840;SDS011;28491;46.898;7.660;2023-02-15T03:00:44;15.55;;;9.40;;
42840;SDS011;28491;46.898;7.660;2023-02-15T03:03:26;15.80;;;9.60;;
42840;SDS011;28491;46.898;7.660;2023-02-15T03:05:54;17.05;;;8.93;;
42840;SDS011;28491;46.898;7.660;2023-02-15T03:08:22;17.55;;;9.43;;
42840;SDS011;28491;46.898;7.660;2023-02-15T03:10:53;12.43;;;7.88;;
42840;SDS011;28491;46.898;7.660;2023-02-15T03:13:20;18.17;;;9.20;;
42840;SDS011;28491;46.898;7.660;2023-02-15T03:15:47;15.63;;;9.70;;
42840;SDS011;28491;46.898;7.660;2023-02-15T03:18:35;11.23;;;7.53;;
42840;SDS011;28491;46.898;7.660;2023-02-15T03:21:09;13.07;;;7.72;;
42840;SDS011;28491;46.898;7.660;2023-02-15T03:23:46;12.65;;;6.47;;
42840;SDS011;28491;46.898;7.660;2023-02-15T03:26:17;14.25;;;6.78;;
42840;SDS011;28491;46.898;7.660;2023-02-15T03:28:46;12.57;;;7.40;;
42840;SDS011;28491;46.898;7.660;2023-02-15T03:31:14;13.48;;;7.78;;
42840;SDS011;28491;46.898;7.660;2023-02-15T03:33:42;14.48;;;7.65;;
42840;SDS011;28491;46.898;7.660;2023-02-15T03:36:21;10.93;;;6.95;;
42840;SDS011;28491;46.898;7.660;2023-02-15T03:38:53;12.88;;;7.50;;
42840;SDS011;28491;46.898;7.660;2023-02-15T03:41:29;13.80;;;7.68;;
42840;SDS011;28491;46.898;7.660;2023-02-15T03:44:04;11.23;;;7.15;;
42840;SDS011;28491;46.898;7.660;2023-02-15T03:49:14;10.10;;;5.53;;
42840;SDS011;28491;46.898;7.660;2023-02-15T03:51:45;9.50;;;6.22;;
42840;SDS011;28491;46.898;7.660;2023-02-15T03:54:25;10.32;;;6.68;;
42840;SDS011;28491;46.898;7.660;2023-02-15T03:59:59;10.38;;;6.95;;
42840;SDS011;28491;46.898;7.660;2023-02-15T04:05:17;10.85;;;6.68;;
42840;SDS011;28491;46.898;7.660;2023-02-15T04:07:43;11.15;;;6.70;;
42840;SDS011;28491;46.898;7.660;2023-02-15T04:10:08;12.13;;;7.32;;
42840;SDS011;28491;46.898;7.660;2023-02-15T04:12:52;11.35;;;7.03;;
42840;SDS011;28491;46.898;7.660;2023-02-15T04:15:18;11.75;;;6.55;;
42840;SDS011;28491;46.898;7.660;2023-02-15T04:18:02;11.35;;;6.68;;
42840;SDS011;28491;46.898;7.660;2023-02-15T04:20:28;10.70;;;6.22;;
42840;SDS011;28491;46.898;7.660;2023-02-15T04:23:12;11.38;;;6.25;;
42840;SDS011;28491;46.898;7.660;2023-02-15T04:25:56;10.10;;;6.30;;
42840;SDS011;28491;46.898;7.660;2023-02-15T04:28:22;12.40;;;6.60;;
42840;SDS011;28491;46.898;7.660;2023-02-15T04:30:47;10.00;;;5.97;;
42840;SDS011;28491;46.898;7.660;2023-02-15T04:33:13;9.82;;;6.05;;
42840;SDS011;28491;46.898;7.660;2023-02-15T04:35:38;8.00;;;5.60;;
42840;SDS011;28491;46.898;7.660;2023-02-15T04:38:04;9.85;;;6.05;;
42840;SDS011;28491;46.898;7.660;2023-02-15T04:40:29;10.15;;;5.85;;
42840;SDS011;28491;46.898;7.660;2023-02-15T04:42:55;10.98;;;6.68;;
42840;SDS011;28491;46.898;7.660;2023-02-15T04:45:20;13.75;;;7.78;;
42840;SDS011;28491;46.898;7.660;2023-02-15T04:47:46;13.95;;;8.48;;
42840;SDS011;28491;46.898;7.660;2023-02-15T04:50:11;13.40;;;7.82;;
42840;SDS011;28491;46.898;7.660;2023-02-15T04:52:37;15.13;;;8.38;;
42840;SDS011;28491;46.898;7.660;2023-02-15T04:55:03;11.07;;;7.22;;
42840;SDS011;28491;46.898;7.660;2023-02-15T04:57:28;20.67;;;9.27;;
42840;SDS011;28491;46.898;7.660;2023-02-15T04:59:54;15.25;;;7.22;;
42840;SDS011;28491;46.898;7.660;2023-02-15T05:02:19;12.65;;;8.05;;
42840;SDS011;28491;46.898;7.660;2023-02-15T05:04:45;13.50;;;7.53;;
42840;SDS011;28491;46.898;7.660;2023-02-15T05:07:10;11.10;;;7.28;;
42840;SDS011;28491;46.898;7.660;2023-02-15T05:09:36;21.77;;;7.57;;
42840;SDS011;28491;46.898;7.660;2023-02-15T05:12:01;11.18;;;6.75;;
42840;SDS011;28491;46.898;7.660;2023-02-15T05:14:27;18.08;;;10.15;;
42840;SDS011;28491;46.898;7.660;2023-02-15T05:16:53;19.88;;;8.90;;
42840;SDS011;28491;46.898;7.660;2023-02-15T05:19:19;22.90;;;10.07;;
42840;SDS011;28491;46.898;7.660;2023-02-15T05:21:44;15.93;;;8.48;;
42840;SDS011;28491;46.898;7.660;2023-02-15T05:24:10;19.98;;;9.00;;
42840;SDS011;28491;46.898;7.660;2023-02-15T05:26:54;8.80;;;5.65;;
42840;SDS011;28491;46.898;7.660;2023-02-15T05:29:38;17.23;;;9.73;;
42840;SDS011;28491;46.898;7.660;2023-02-15T05:32:03;11.82;;;6.85;;
42840;SDS011;28491;46.898;7.660;2023-02-15T05:34:29;13.57;;;9.35;;
42840;SDS011;28491;46.898;7.660;2023-02-15T05:36:55;20.50;;;10.85;;
42840;SDS011;28491;46.898;7.660;2023-02-15T05:39:20;20.45;;;12.15;;
42840;SDS011;28491;46.898;7.660;2023-02-15T05:41:46;22.23;;;11.65;;
42840;SDS011;28491;46.898;7.660;2023-02-15T05:44:11;20.73;;;10.60;;
42840;SDS011;28491;46.898;7.660;2023-02-15T05:46:37;17.50;;;8.60;;
42840;SDS011;28491;46.898;7.660;2023-02-15T05:49:02;20.88;;;8.50;;
42840;SDS011;28491;46.898;7.660;2023-02-15T05:51:28;15.40;;;7.93;;
42840;SDS011;28491;46.898;7.660;2023-02-15T05:53:53;11.45;;;6.30;;
42840;SDS011;28491;46.898;7.660;2023-02-15T05:56:19;9.60;;;6.32;;
42840;SDS011;28491;46.898;7.660;2023-02-15T05:58:44;14.68;;;8.10;;
42840;SDS011;28491;46.898;7.660;2023-02-15T06:01:10;10.13;;;6.72;;
42840;SDS011;28491;46.898;7.660;2023-02-15T06:03:37;10.50;;;6.65;;
42840;SDS011;28491;46.898;7.660;2023-02-15T06:06:03;11.07;;;6.63;;
42840;SDS011;28491;46.898;7.660;2023-02-15T06:08:29;9.77;;;6.05;;
42840;SDS011;28491;46.898;7.660;2023-02-15T06:10:56;11.05;;;6.45;;
42840;SDS011;28491;46.898;7.660;2023-02-15T06:13:21;11.45;;;7.38;;
42840;SDS011;28491;46.898;7.660;2023-02-15T06:15:47;12.40;;;7.43;;
42840;SDS011;28491;46.898;7.660;2023-02-15T06:18:12;10.10;;;6.75;;
42840;SDS011;28491;46.898;7.660;2023-02-15T06:20:38;13.40;;;6.68;;
42840;SDS011;28491;46.898;7.660;2023-02-15T06:23:03;12.52;;;7.05;;
42840;SDS011;28491;46.898;7.660;2023-02-15T06:25:29;14.02;;;7.13;;
42840;SDS011;28491;46.898;7.660;2023-02-15T06:27:55;11.00;;;6.30;;
42840;SDS011;28491;46.898;7.660;2023-02-15T06:30:20;10.82;;;6.65;;
42840;SDS011;28491;46.898;7.660;2023-02-15T06:32:46;11.80;;;6.32;;
42840;SDS011;28491;46.898;7.660;2023-02-15T06:35:11;11.57;;;7.00;;
42840;SDS011;28491;46.898;7.660;2023-02-15T06:37:37;10.98;;;6.00;;
42840;SDS011;28491;46.898;7.660;2023-02-15T06:40:03;11.68;;;6.25;;
42840;SDS011;28491;46.898;7.660;2023-02-15T06:42:29;12.50;;;6.85;;
42840;SDS011;28491;46.898;7.660;2023-02-15T06:44:55;14.88;;;7.13;;
42840;SDS011;28491;46.898;7.660;2023-02-15T06:47:21;13.45;;;6.53;;
42840;SDS011;28491;46.898;7.660;2023-02-15T06:49:46;12.77;;;7.22;;
42840;SDS011;28491;46.898;7.660;2023-02-15T06:52:12;12.35;;;7.70;;
42840;SDS011;28491;46.898;7.660;2023-02-15T06:54:37;18.20;;;9.68;;
42840;SDS011;28491;46.898;7.660;2023-02-15T06:57:03;15.52;;;9.02;;
42840;SDS011;28491;46.898;7.660;2023-02-15T06:59:28;10.45;;;6.30;;
42840;SDS011;28491;46.898;7.660;2023-02-15T07:01:54;12.68;;;7.10;;
42840;SDS011;28491;46.898;7.660;2023-02-15T07:04:19;11.55;;;6.25;;
42840;SDS011;28491;46.898;7.660;2023-02-15T07:06:45;13.25;;;7.07;;
42840;SDS011;28491;46.898;7.660;2023-02-15T07:09:10;14.38;;;7.40;;
42840;SDS011;28491;46.898;7.660;2023-02-15T07:11:37;13.15;;;7.15;;
42840;SDS011;28491;46.898;7.660;2023-02-15T07:14:21;12.60;;;8.38;;
42840;SDS011;28491;46.898;7.660;2023-02-15T07:16:47;13.20;;;6.68;;
42840;SDS011;28491;46.898;7.660;2023-02-15T07:19:13;17.33;;;9.25;;
42840;SDS011;28491;46.898;7.660;2023-02-15T07:21:38;12.50;;;7.88;;
42840;SDS011;28491;46.898;7.660;2023-02-15T07:24:04;10.38;;;5.68;;
42840;SDS011;28491;46.898;7.660;2023-02-15T07:26:31;9.40;;;5.20;;
42840;SDS011;28491;46.898;7.660;2023-02-15T07:28:57;10.93;;;6.32;;
42840;SDS011;28491;46.898;7.660;2023-02-15T07:31:22;6.82;;;4.80;;
42840;SDS011;28491;46.898;7.660;2023-02-15T07:33:48;9.95;;;5.32;;
42840;SDS011;28491;46.898;7.660;2023-02-15T07:36:13;9.45;;;4.82;;
42840;SDS011;28491;46.898;7.660;2023-02-15T07:38:40;6.60;;;4.00;;
42840;SDS011;28491;46.898;7.660;2023-02-15T07:41:07;5.82;;;4.03;;
42840;SDS011;28491;46.898;7.660;2023-02-15T07:46:06;11.32;;;5.65;;
42840;SDS011;28491;46.898;7.660;2023-02-15T07:48:35;11.13;;;6.50;;
42840;SDS011;28491;46.898;7.660;2023-02-15T07:51:02;12.27;;;7.05;;
42840;SDS011;28491;46.898;7.660;2023-02-15T07:53:29;20.20;;;12.05;;
42840;SDS011;28491;46.898;7.660;2023-02-15T07:56:13;14.27;;;9.35;;
42840;SDS011;28491;46.898;7.660;2023-02-15T07:58:40;15.30;;;7.60;;
42840;SDS011;28491;46.898;7.660;2023-02-15T08:01:18;9.93;;;6.90;;
42840;SDS011;28491;46.898;7.660;2023-02-15T08:03:46;14.82;;;6.38;;
42840;SDS011;28491;46.898;7.660;2023-02-15T08:06:11;14.60;;;6.47;;
42840;SDS011;28491;46.898;7.660;2023-02-15T08:08:38;8.48;;;5.03;;
42840;SDS011;28491;46.898;7.660;2023-02-15T08:11:05;10.90;;;5.80;;
42840;SDS011;28491;46.898;7.660;2023-02-15T08:13:51;9.40;;;5.55;;
42840;SDS011;28491;46.898;7.660;2023-02-15T08:17:08;7.47;;;5.25;;
42840;SDS011;28491;46.898;7.660;2023-02-15T08:21:45;7.95;;;4.90;;
42840;SDS011;28491;46.898;7.660;2023-02-15T08:24:19;9.32;;;5.13;;
42840;SDS011;28491;46.898;7.660;2023-02-15T08:26:46;7.72;;;4.53;;
42840;SDS011;28491;46.898;7.660;2023-02-15T08:29:13;9.88;;;4.40;;
42840;SDS011;28491;46.898;7.660;2023-02-15T08:31:40;9.30;;;4.35;;
42840;SDS011;28491;46.898;7.660;2023-02-15T08:34:06;6.82;;;4.53;;
42840;SDS011;28491;46.898;7.660;2023-02-15T08:36:33;6.72;;;4.43;;
42840;SDS011;28491;46.898;7.660;2023-02-15T08:39:02;8.38;;;4.50;;
42840;SDS011;28491;46.898;7.660;2023-02-15T08:41:31;7.07;;;3.95;;
42840;SDS011;28491;46.898;7.660;2023-02-15T08:44:00;5.57;;;3.45;;
42840;SDS011;28491;46.898;7.660;2023-02-15T08:46:28;5.57;;;3.42;;
42840;SDS011;28491;46.898;7.660;2023-02-15T08:48:56;6.28;;;3.90;;
42840;SDS011;28491;46.898;7.660;2023-02-15T08:51:23;7.70;;;3.65;;
42840;SDS011;28491;46.898;7.660;2023-02-15T08:53:55;7.82;;;4.03;;
42840;SDS011;28491;46.898;7.660;2023-02-15T08:56:23;5.70;;;3.20;;
42840;SDS011;28491;46.898;7.660;2023-02-15T08:58:50;8.13;;;3.30;;
42840;SDS011;28491;46.898;7.660;2023-02-15T09:01:17;7.72;;;3.63;;
42840;SDS011;28491;46.898;7.660;2023-02-15T09:03:48;7.32;;;4.65;;
42840;SDS011;28491;46.898;7.660;2023-02-15T09:06:17;11.63;;;4.75;;
42840;SDS011;28491;46.898;7.660;2023-02-15T09:08:43;7.38;;;4.55;;
42840;SDS011;28491;46.898;7.660;2023-02-15T09:11:15;22.45;;;4.15;;
42840;SDS011;28491;46.898;7.660;2023-02-15T09:13:47;9.45;;;4.05;;
42840;SDS011;28491;46.898;7.660;2023-02-15T09:18:41;8.73;;;5.32;;
42840;SDS011;28491;46.898;7.660;2023-02-15T09:21:09;9.18;;;5.32;;
42840;SDS011;28491;46.898;7.660;2023-02-15T09:23:40;9.13;;;3.78;;
42840;SDS011;28491;46.898;7.660;2023-02-15T09:26:07;6.47;;;3.65;;
42840;SDS011;28491;46.898;7.660;2023-02-15T09:28:34;7.30;;;4.43;;
42840;SDS011;28491;46.898;7.660;2023-02-15T09:31:07;7.82;;;4.55;;
42840;SDS011;28491;46.898;7.660;2023-02-15T09:33:38;6.53;;;4.38;;
42840;SDS011;28491;46.898;7.660;2023-02-15T09:36:04;8.55;;;3.97;;
42840;SDS011;28491;46.898;7.660;2023-02-15T09:38:31;6.90;;;3.65;;
42840;SDS011;28491;46.898;7.660;2023-02-15T09:44:10;7.20;;;3.50;;
42840;SDS011;28491;46.898;7.660;2023-02-15T09:55:35;8.55;;;4.15;;
42840;SDS011;28491;46.898;7.660;2023-02-15T10:03:40;6.80;;;3.70;;
42840;SDS011;28491;46.898;7.660;2023-02-15T10:20:40;6.38;;;4.35;;
42840;SDS011;28491;46.898;7.660;2023-02-15T10:23:38;7.95;;;3.83;;
42840;SDS011;28491;46.898;7.660;2023-02-15T10:28:51;7.03;;;4.45;;
42840;SDS011;28491;46.898;7.660;2023-02-15T10:34:18;12.35;;;4.78;;
42840;SDS011;28491;46.898;7.660;2023-02-15T10:36:50;8.25;;;4.13;;
42840;SDS011;28491;46.898;7.660;2023-02-15T10:39:40;5.35;;;3.83;;
42840;SDS011;28491;46.898;7.660;2023-02-15T10:45:01;7.45;;;4.65;;
42840;SDS011;28491;46.898;7.660;2023-02-15T10:50:59;5.93;;;3.78;;
42840;SDS011;28491;46.898;7.660;2023-02-15T11:01:54;4.68;;;3.38;;
42840;SDS011;28491;46.898;7.660;2023-02-15T11:07:26;5.88;;;4.18;;
42840;SDS011;28491;46.898;7.660;2023-02-15T11:10:07;5.78;;;3.65;;
42840;SDS011;28491;46.898;7.660;2023-02-15T11:12:48;12.60;;;7.50;;
42840;SDS011;28491;46.898;7.660;2023-02-15T11:15:16;10.43;;;6.32;;
42840;SDS011;28491;46.898;7.660;2023-02-15T11:18:11;13.95;;;7.40;;
42840;SDS011;28491;46.898;7.660;2023-02-15T11:20:58;12.20;;;7.47;;
42840;SDS011;28491;46.898;7.660;2023-02-15T11:23:45;7.07;;;4.10;;
42840;SDS011;28491;46.898;7.660;2023-02-15T11:26:24;8.32;;;5.72;;
42840;SDS011;28491;46.898;7.660;2023-02-15T11:29:57;7.15;;;4.55;;
42840;SDS011;28491;46.898;7.660;2023-02-15T11:31:59;6.00;;;4.20;;
42840;SDS011;28491;46.898;7.660;2023-02-15T11:34:49;6.88;;;4.22;;
42840;SDS011;28491;46.898;7.660;2023-02-15T11:40:26;7.53;;;4.28;;
42840;SDS011;28491;46.898;7.660;2023-02-15T11:43:00;6.50;;;3.22;;
42840;SDS011;28491;46.898;7.660;2023-02-15T11:45:31;12.07;;;6.38;;
42840;SDS011;28491;46.898;7.660;2023-02-15T11:48:00;10.13;;;6.32;;
42840;SDS011;28491;46.898;7.660;2023-02-15T11:50:33;6.72;;;4.30;;
42840;SDS011;28491;46.898;7.660;2023-02-15T11:53:00;9.85;;;5.75;;
42840;SDS011;28491;46.898;7.660;2023-02-15T11:55:29;9.07;;;4.60;;
42840;SDS011;28491;46.898;7.660;2023-02-15T12:00:46;12.50;;;6.00;;
42840;SDS011;28491;46.898;7.660;2023-02-15T12:06:11;12.63;;;6.45;;
42840;SDS011;28491;46.898;7.660;2023-02-15T12:08:44;11.02;;;6.35;;
42840;SDS011;28491;46.898;7.660;2023-02-15T12:11:17;10.18;;;5.53;;
42840;SDS011;28491;46.898;7.660;2023-02-15T12:13:57;10.65;;;5.75;;
42840;SDS011;28491;46.898;7.660;2023-02-15T12:16:24;9.55;;;5.75;;
42840;SDS011;28491;46.898;7.660;2023-02-15T12:18:52;10.32;;;5.53;;
42840;SDS011;28491;46.898;7.660;2023-02-15T12:21:25;12.00;;;7.72;;
42840;SDS011;28491;46.898;7.660;2023-02-15T12:23:58;12.63;;;7.55;;
42840;SDS011;28491;46.898;7.660;2023-02-15T12:26:30;12.18;;;7.00;;
42840;SDS011;28491;46.898;7.660;2023-02-15T12:29:15;9.83;;;5.93;;
42840;SDS011;28491;46.898;7.660;2023-02-15T12:31:44;11.20;;;6.72;;
42840;SDS011;28491;46.898;7.660;2023-02-15T12:34:12;11.15;;;6.70;;
42840;SDS011;28491;46.898;7.660;2023-02-15T12:36:46;12.90;;;7.13;;
42840;SDS011;28491;46.898;7.660;2023-02-15T12:39:22;10.07;;;6.00;;
42840;SDS011;28491;46.898;7.660;2023-02-15T12:44:55;10.00;;;6.47;;
42840;SDS011;28491;46.898;7.660;2023-02-15T12:47:21;8.82;;;5.63;;
42840;SDS011;28491;46.898;7.660;2023-02-15T12:50:05;8.18;;;4.70;;
42840;SDS011;28491;46.898;7.660;2023-02-15T12:52:42;9.20;;;6.05;;
42840;SDS011;28491;46.898;7.660;2023-02-15T12:55:30;11.60;;;5.57;;
42840;SDS011;28491;46.898;7.660;2023-02-15T13:01:11;9.75;;;5.72;;
42840;SDS011;28491;46.898;7.660;2023-02-15T13:06:22;9.38;;;6.05;;
42840;SDS011;28491;46.898;7.660;2023-02-15T13:08:52;9.13;;;5.22;;
42840;SDS011;28491;46.898;7.660;2023-02-15T13:11:29;11.20;;;5.60;;
42840;SDS011;28491;46.898;7.660;2023-02-15T13:14:00;10.05;;;4.93;;
42840;SDS011;28491;46.898;7.660;2023-02-15T13:16:35;11.48;;;6.40;;
42840;SDS011;28491;46.898;7.660;2023-02-15T13:19:08;9.27;;;4.53;;
42840;SDS011;28491;46.898;7.660;2023-02-15T13:21:41;7.68;;;4.97;;
42840;SDS011;28491;46.898;7.660;2023-02-15T13:24:17;8.90;;;5.47;;
42840;SDS011;28491;46.898;7.660;2023-02-15T13:27:10;7.90;;;4.82;;
42840;SDS011;28491;46.898;7.660;2023-02-15T13:29:44;9.02;;;5.07;;
42840;SDS011;28491;46.898;7.660;2023-02-15T13:32:29;9.60;;;4.32;;
42840;SDS011;28491;46.898;7.660;2023-02-15T13:34:59;9.18;;;5.13;;
42840;SDS011;28491;46.898;7.660;2023-02-15T13:37:33;7.63;;;4.63;;
42840;SDS011;28491;46.898;7.660;2023-02-15T13:40:15;10.00;;;6.35;;
42840;SDS011;28491;46.898;7.660;2023-02-15T13:46:14;9.93;;;5.60;;
42840;SDS011;28491;46.898;7.660;2023-02-15T13:48:58;8.65;;;5.25;;
42840;SDS011;28491;46.898;7.660;2023-02-15T13:54:43;11.60;;;4.50;;
42840;SDS011;28491;46.898;7.660;2023-02-15T14:00:21;8.10;;;4.50;;
42840;SDS011;28491;46.898;7.660;2023-02-15T14:06:05;8.75;;;4.50;;
42840;SDS011;28491;46.898;7.660;2023-02-15T14:08:37;8.02;;;5.05;;
42840;SDS011;28491;46.898;7.660;2023-02-15T14:14:29;6.70;;;4.00;;
42840;SDS011;28491;46.898;7.660;2023-02-15T14:20:23;9.40;;;5.40;;
42840;SDS011;28491;46.898;7.660;2023-02-15T14:25:49;10.50;;;5.45;;
42840;SDS011;28491;46.898;7.660;2023-02-15T14:31:06;7.38;;;5.07;;
42840;SDS011;28491;46.898;7.660;2023-02-15T14:36:21;8.75;;;4.88;;
42840;SDS011;28491;46.898;7.660;2023-02-15T14:38:58;8.98;;;5.57;;
42840;SDS011;28491;46.898;7.660;2023-02-15T14:41:57;9.18;;;5.07;;
42840;SDS011;28491;46.898;7.660;2023-02-15T14:44:31;9.20;;;5.25;;
42840;SDS011;28491;46.898;7.660;2023-02-15T14:47:10;9.30;;;5.20;;
42840;SDS011;28491;46.898;7.660;2023-02-15T14:49:47;8.98;;;5.10;;
42840;SDS011;28491;46.898;7.660;2023-02-15T14:52:12;8.38;;;5.13;;
42840;SDS011;28491;46.898;7.660;2023-02-15T14:59:42;13.43;;;5.32;;
42840;SDS011;28491;46.898;7.660;2023-02-15T15:03:08;13.13;;;4.85;;
42840;SDS011;28491;46.898;7.660;2023-02-15T15:05:21;8.63;;;5.30;;
42840;SDS011;28491;46.898;7.660;2023-02-15T15:08:19;7.93;;;4.32;;
42840;SDS011;28491;46.898;7.660;2023-02-15T15:10:50;12.32;;;4.40;;
42840;SDS011;28491;46.898;7.660;2023-02-15T15:13:35;5.97;;;3.85;;
42840;SDS011;28491;46.898;7.660;2023-02-15T15:19:10;6.10;;;3.88;;
42840;SDS011;28491;46.898;7.660;2023-02-15T15:24:45;7.63;;;3.63;;
42840;SDS011;28491;46.898;7.660;2023-02-15T15:44:00;8.52;;;3.78;;
42840;SDS011;28491;46.898;7.660;2023-02-15T15:49:45;18.83;;;10.77;;
42840;SDS011;28491;46.898;7.660;2023-02-15T15:52:18;10.23;;;6.32;;
42840;SDS011;28491;46.898;7.660;2023-02-15T15:54:46;11.60;;;6.15;;
42840;SDS011;28491;46.898;7.660;2023-02-15T15:59:58;10.15;;;5.38;;
42840;SDS011;28491;46.898;7.660;2023-02-15T16:02:26;12.98;;;6.22;;
42840;SDS011;28491;46.898;7.660;2023-02-15T16:04:53;13.63;;;6.20;;
42840;SDS011;28491;46.898;7.660;2023-02-15T16:09:54;10.63;;;5.65;;
42840;SDS011;28491;46.898;7.660;2023-02-15T16:12:20;7.72;;;5.18;;
42840;SDS011;28491;46.898;7.660;2023-02-15T16:14:46;8.38;;;5.68;;
42840;SDS011;28491;46.898;7.660;2023-02-15T16:17:25;9.48;;;4.43;;
42840;SDS011;28491;46.898;7.660;2023-02-15T16:20:06;7.60;;;4.20;;
42840;SDS011;28491;46.898;7.660;2023-02-15T16:22:43;8.55;;;4.25;;
42840;SDS011;28491;46.898;7.660;2023-02-15T16:25:26;12.38;;;4.53;;
42840;SDS011;28491;46.898;7.660;2023-02-15T16:28:08;7.32;;;4.60;;
42840;SDS011;28491;46.898;7.660;2023-02-15T16:30:37;10.35;;;5.47;;
42840;SDS011;28491;46.898;7.660;2023-02-15T16:35:31;15.80;;;7.45;;
42840;SDS011;28491;46.898;7.660;2023-02-15T16:37:58;16.63;;;8.80;;
42840;SDS011;28491;46.898;7.660;2023-02-15T16:42:53;27.77;;;8.52;;
42840;SDS011;28491;46.898;7.660;2023-02-15T16:45:22;13.68;;;8.45;;
42840;SDS011;28491;46.898;7.660;2023-02-15T16:47:51;13.32;;;7.68;;
42840;SDS011;28491;46.898;7.660;2023-02-15T16:50:21;12.52;;;6.95;;
42840;SDS011;28491;46.898;7.660;2023-02-15T16:55:26;14.20;;;6.35;;
42840;SDS011;28491;46.898;7.660;2023-02-15T16:57:58;15.00;;;7.32;;
42840;SDS011;28491;46.898;7.660;2023-02-15T17:00:28;15.18;;;7.40;;
42840;SDS011;28491;46.898;7.660;2023-02-15T17:03:01;12.98;;;6.93;;
42840;SDS011;28491;46.898;7.660;2023-02-15T17:05:33;14.35;;;6.85;;
42840;SDS011;28491;46.898;7.660;2023-02-15T17:08:10;14.77;;;7.35;;
42840;SDS011;28491;46.898;7.660;2023-02-15T17:10:42;14.98;;;6.97;;
42840;SDS011;28491;46.898;7.660;2023-02-15T17:20:38;14.13;;;6.88;;
42840;SDS011;28491;46.898;7.660;2023-02-15T17:23:06;17.58;;;8.65;;
42840;SDS011;28491;46.898;7.660;2023-02-15T17:25:44;36.17;;;21.00;;
42840;SDS011;28491;46.898;7.660;2023-02-15T17:28:17;29.73;;;15.88;;
42840;SDS011;28491;46.898;7.660;2023-02-15T17:30:45;16.90;;;10.40;;
42840;SDS011;28491;46.898;7.660;2023-02-15T17:36:07;42.45;;;10.18;;
42840;SDS011;28491;46.898;7.660;2023-02-15T17:41:47;16.92;;;9.07;;
42840;SDS011;28491;46.898;7.660;2023-02-15T17:44:12;11.80;;;8.18;;
42840;SDS011;28491;46.898;7.660;2023-02-15T17:46:40;11.88;;;6.70;;
42840;SDS011;28491;46.898;7.660;2023-02-15T17:49:06;14.77;;;7.95;;
42840;SDS011;28491;46.898;7.660;2023-02-15T17:51:38;12.93;;;7.35;;
42840;SDS011;28491;46.898;7.660;2023-02-15T17:54:04;14.80;;;7.72;;
42840;SDS011;28491;46.898;7.660;2023-02-15T17:56:48;13.00;;;7.80;;
42840;SDS011;28491;46.898;7.660;2023-02-15T17:59:14;14.77;;;9.48;;
42840;SDS011;28491;46.898;7.660;2023-02-15T18:01:44;17.05;;;9.93;;
42840;SDS011;28491;46.898;7.660;2023-02-15T18:04:31;14.05;;;8.85;;
42840;SDS011;28491;46.898;7.660;2023-02-15T18:07:17;19.67;;;8.63;;
42840;SDS011;28491;46.898;7.660;2023-02-15T18:10:03;13.63;;;8.05;;
42840;SDS011;28491;46.898;7.660;2023-02-15T18:13:07;21.05;;;11.13;;
42840;SDS011;28491;46.898;7.660;2023-02-15T18:15:33;19.15;;;8.63;;